sensor_id;sensor_type;location;lat;lon;timestamp;P1;durP1;ratioP1;P2;durP2;ratioP2
56830;SDS011;42713;42.676;23.352;2023-02-15T00:01:14;51.10;;;26.42;;
56830;SDS011;42713;42.676;23.352;2023-02-15T00:03:40;52.63;;;26.88;;
56830;SDS011;42713;42.676;23.352;2023-02-15T00:06:05;52.08;;;27.23;;
56830;SDS011;42713;42.676;23.352;2023-02-15T00:08:31;45.58;;;26.10;;
56830;SDS011;42713;42.676;23.352;2023-02-15T00:11:09;50.35;;;26.52;;
56830;SDS011;42713;42.676;23.352;2023-02-15T00:13:36;49.45;;;24.85;;
56830;SDS011;42713;42.676;23.352;2023-02-15T00:16:04;48.03;;;25.33;;
56830;SDS011;42713;42.676;23.352;2023-02-15T00:18:31;46.92;;;25.15;;
56830;SDS011;42713;42.676;23.352;2023-02-15T00:20:57;51.08;;;25.90;;
56830;SDS011;42713;42.676;23.352;2023-02-15T00:23:23;45.95;;;25.23;;
56830;SDS011;42713;42.676;23.352;2023-02-15T00:25:49;44.42;;;25.17;;
56830;SDS011;42713;42.676;23.352;2023-02-15T00:28:15;46.40;;;26.50;;
56830;SDS011;42713;42.676;23.352;2023-02-15T00:30:40;45.15;;;25.65;;
56830;SDS011;42713;42.676;23.352;2023-02-15T00:33:06;48.35;;;25.23;;
56830;SDS011;42713;42.676;23.352;2023-02-15T00:35:31;45.70;;;23.88;;
56830;SDS011;42713;42.676;23.352;2023-02-15T00:37:57;45.42;;;24.42;;
56830;SDS011;42713;42.676;23.352;2023-02-15T00:40:22;51.47;;;26.73;;
56830;SDS011;42713;42.676;23.352;2023-02-15T00:42:48;49.95;;;25.60;;
56830;SDS011;42713;42.676;23.352;2023-02-15T00:45:13;46.03;;;24.70;;
56830;SDS011;42713;42.676;23.352;2023-02-15T00:47:38;44.45;;;25.88;;
56830;SDS011;42713;42.676;23.352;2023-02-15T00:50:04;42.85;;;23.70;;
56830;SDS011;42713;42.676;23.352;2023-02-15T00:52:30;49.60;;;26.80;;
56830;SDS011;42713;42.676;23.352;2023-02-15T00:54:56;47.63;;;25.17;;
56830;SDS011;42713;42.676;23.352;2023-02-15T00:57:21;46.53;;;25.42;;
56830;SDS011;42713;42.676;23.352;2023-02-15T00:59:47;44.75;;;24.60;;
56830;SDS011;42713;42.676;23.352;2023-02-15T01:02:12;48.45;;;24.60;;
56830;SDS011;42713;42.676;23.352;2023-02-15T01:04:38;49.80;;;26.35;;
56830;SDS011;42713;42.676;23.352;2023-02-15T01:07:03;44.30;;;24.08;;
56830;SDS011;42713;42.676;23.352;2023-02-15T01:09:28;47.53;;;24.60;;
56830;SDS011;42713;42.676;23.352;2023-02-15T01:11:54;43.70;;;24.05;;
56830;SDS011;42713;42.676;23.352;2023-02-15T01:14:20;45.25;;;24.17;;
56830;SDS011;42713;42.676;23.352;2023-02-15T01:16:46;47.13;;;24.15;;
56830;SDS011;42713;42.676;23.352;2023-02-15T01:19:12;40.17;;;23.33;;
56830;SDS011;42713;42.676;23.352;2023-02-15T01:21:37;44.28;;;24.92;;
56830;SDS011;42713;42.676;23.352;2023-02-15T01:24:10;44.40;;;23.08;;
56830;SDS011;42713;42.676;23.352;2023-02-15T01:26:37;43.55;;;24.40;;
56830;SDS011;42713;42.676;23.352;2023-02-15T01:29:03;43.85;;;22.75;;
56830;SDS011;42713;42.676;23.352;2023-02-15T01:31:28;40.88;;;22.55;;
56830;SDS011;42713;42.676;23.352;2023-02-15T01:33:54;45.83;;;24.02;;
56830;SDS011;42713;42.676;23.352;2023-02-15T01:36:19;43.90;;;23.92;;
56830;SDS011;42713;42.676;23.352;2023-02-15T01:38:45;41.00;;;22.52;;
56830;SDS011;42713;42.676;23.352;2023-02-15T01:41:10;44.85;;;23.50;;
56830;SDS011;42713;42.676;23.352;2023-02-15T01:43:48;42.00;;;23.25;;
56830;SDS011;42713;42.676;23.352;2023-02-15T01:46:20;44.13;;;23.90;;
56830;SDS011;42713;42.676;23.352;2023-02-15T01:48:55;42.20;;;23.65;;
56830;SDS011;42713;42.676;23.352;2023-02-15T01:51:27;44.50;;;24.60;;
56830;SDS011;42713;42.676;23.352;2023-02-15T01:54:01;40.90;;;23.92;;
56830;SDS011;42713;42.676;23.352;2023-02-15T01:56:35;44.05;;;23.95;;
56830;SDS011;42713;42.676;23.352;2023-02-15T01:59:05;48.15;;;25.02;;
56830;SDS011;42713;42.676;23.352;2023-02-15T02:01:34;42.50;;;23.33;;
56830;SDS011;42713;42.676;23.352;2023-02-15T02:04:23;42.97;;;23.10;;
56830;SDS011;42713;42.676;23.352;2023-02-15T02:07:21;41.92;;;23.33;;
56830;SDS011;42713;42.676;23.352;2023-02-15T02:09:48;45.45;;;24.50;;
56830;SDS011;42713;42.676;23.352;2023-02-15T02:12:15;43.03;;;22.40;;
56830;SDS011;42713;42.676;23.352;2023-02-15T02:14:42;40.88;;;23.02;;
56830;SDS011;42713;42.676;23.352;2023-02-15T02:17:11;43.17;;;22.48;;
56830;SDS011;42713;42.676;23.352;2023-02-15T02:36:00;42.80;;;23.92;;
56830;SDS011;42713;42.676;23.352;2023-02-15T02:44:57;41.47;;;23.02;;
56830;SDS011;42713;42.676;23.352;2023-02-15T02:49:39;43.30;;;22.23;;
56830;SDS011;42713;42.676;23.352;2023-02-15T03:00:52;40.72;;;22.55;;
56830;SDS011;42713;42.676;23.352;2023-02-15T03:05:50;41.15;;;21.85;;
56830;SDS011;42713;42.676;23.352;2023-02-15T03:08:20;40.90;;;22.65;;
56830;SDS011;42713;42.676;23.352;2023-02-15T03:10:53;40.03;;;21.30;;
56830;SDS011;42713;42.676;23.352;2023-02-15T03:13:22;40.45;;;22.45;;
56830;SDS011;42713;42.676;23.352;2023-02-15T03:15:48;37.00;;;20.85;;
56830;SDS011;42713;42.676;23.352;2023-02-15T03:18:35;39.35;;;20.92;;
56830;SDS011;42713;42.676;23.352;2023-02-15T03:21:08;37.50;;;20.33;;
56830;SDS011;42713;42.676;23.352;2023-02-15T03:23:48;40.47;;;20.73;;
56830;SDS011;42713;42.676;23.352;2023-02-15T03:26:17;38.53;;;21.38;;
56830;SDS011;42713;42.676;23.352;2023-02-15T03:28:45;39.92;;;21.33;;
56830;SDS011;42713;42.676;23.352;2023-02-15T03:31:13;39.33;;;21.42;;
56830;SDS011;42713;42.676;23.352;2023-02-15T03:33:42;41.92;;;21.27;;
56830;SDS011;42713;42.676;23.352;2023-02-15T03:36:22;40.03;;;20.40;;
56830;SDS011;42713;42.676;23.352;2023-02-15T03:41:46;35.65;;;20.67;;
56830;SDS011;42713;42.676;23.352;2023-02-15T03:44:39;39.65;;;21.45;;
56830;SDS011;42713;42.676;23.352;2023-02-15T03:47:17;41.70;;;21.90;;
56830;SDS011;42713;42.676;23.352;2023-02-15T03:49:53;34.80;;;20.42;;
56830;SDS011;42713;42.676;23.352;2023-02-15T03:52:24;40.28;;;21.30;;
56830;SDS011;42713;42.676;23.352;2023-02-15T03:54:53;41.55;;;22.55;;
56830;SDS011;42713;42.676;23.352;2023-02-15T03:57:24;36.97;;;20.13;;
56830;SDS011;42713;42.676;23.352;2023-02-15T04:00:22;40.27;;;22.20;;
56830;SDS011;42713;42.676;23.352;2023-02-15T04:03:09;39.50;;;21.30;;
56830;SDS011;42713;42.676;23.352;2023-02-15T04:05:42;39.00;;;20.55;;
56830;SDS011;42713;42.676;23.352;2023-02-15T04:08:09;36.15;;;20.88;;
56830;SDS011;42713;42.676;23.352;2023-02-15T04:10:35;37.97;;;20.48;;
56830;SDS011;42713;42.676;23.352;2023-02-15T04:13:21;36.10;;;18.58;;
56830;SDS011;42713;42.676;23.352;2023-02-15T04:15:48;40.90;;;21.75;;
56830;SDS011;42713;42.676;23.352;2023-02-15T04:18:39;38.75;;;20.15;;
56830;SDS011;42713;42.676;23.352;2023-02-15T04:21:26;34.80;;;19.88;;
56830;SDS011;42713;42.676;23.352;2023-02-15T04:24:14;40.47;;;20.77;;
56830;SDS011;42713;42.676;23.352;2023-02-15T04:26:59;37.25;;;19.83;;
56830;SDS011;42713;42.676;23.352;2023-02-15T04:29:25;35.42;;;20.38;;
56830;SDS011;42713;42.676;23.352;2023-02-15T04:31:52;40.42;;;19.75;;
56830;SDS011;42713;42.676;23.352;2023-02-15T04:34:18;37.28;;;21.48;;
56830;SDS011;42713;42.676;23.352;2023-02-15T04:36:44;38.60;;;19.73;;
56830;SDS011;42713;42.676;23.352;2023-02-15T04:39:12;41.72;;;22.05;;
56830;SDS011;42713;42.676;23.352;2023-02-15T04:41:39;37.13;;;21.33;;
56830;SDS011;42713;42.676;23.352;2023-02-15T04:44:05;41.55;;;21.15;;
56830;SDS011;42713;42.676;23.352;2023-02-15T04:46:31;39.88;;;21.40;;
56830;SDS011;42713;42.676;23.352;2023-02-15T04:48:56;36.13;;;19.65;;
56830;SDS011;42713;42.676;23.352;2023-02-15T04:51:22;40.25;;;21.10;;
56830;SDS011;42713;42.676;23.352;2023-02-15T04:53:48;37.55;;;20.73;;
56830;SDS011;42713;42.676;23.352;2023-02-15T04:56:14;37.63;;;20.42;;
56830;SDS011;42713;42.676;23.352;2023-02-15T04:58:40;38.72;;;21.23;;
56830;SDS011;42713;42.676;23.352;2023-02-15T05:01:09;40.28;;;21.48;;
56830;SDS011;42713;42.676;23.352;2023-02-15T05:03:36;35.13;;;19.73;;
56830;SDS011;42713;42.676;23.352;2023-02-15T05:06:02;39.58;;;21.98;;
56830;SDS011;42713;42.676;23.352;2023-02-15T05:08:29;40.38;;;20.77;;
56830;SDS011;42713;42.676;23.352;2023-02-15T05:10:54;40.58;;;21.73;;
56830;SDS011;42713;42.676;23.352;2023-02-15T05:13:20;36.67;;;20.35;;
56830;SDS011;42713;42.676;23.352;2023-02-15T05:15:49;37.92;;;19.88;;
56830;SDS011;42713;42.676;23.352;2023-02-15T05:18:16;38.30;;;20.95;;
56830;SDS011;42713;42.676;23.352;2023-02-15T05:20:43;38.38;;;21.45;;
56830;SDS011;42713;42.676;23.352;2023-02-15T05:23:08;40.65;;;21.35;;
56830;SDS011;42713;42.676;23.352;2023-02-15T05:25:34;38.22;;;22.00;;
56830;SDS011;42713;42.676;23.352;2023-02-15T05:28:19;34.58;;;19.60;;
56830;SDS011;42713;42.676;23.352;2023-02-15T05:30:46;37.08;;;19.83;;
56830;SDS011;42713;42.676;23.352;2023-02-15T05:33:12;39.50;;;20.92;;
56830;SDS011;42713;42.676;23.352;2023-02-15T05:35:38;37.90;;;20.73;;
56830;SDS011;42713;42.676;23.352;2023-02-15T05:38:03;35.70;;;21.02;;
56830;SDS011;42713;42.676;23.352;2023-02-15T05:40:32;38.70;;;21.70;;
56830;SDS011;42713;42.676;23.352;2023-02-15T05:42:57;37.42;;;21.63;;
56830;SDS011;42713;42.676;23.352;2023-02-15T05:45:23;33.80;;;19.48;;
56830;SDS011;42713;42.676;23.352;2023-02-15T05:47:49;44.47;;;22.33;;
56830;SDS011;42713;42.676;23.352;2023-02-15T05:50:15;39.28;;;20.60;;
56830;SDS011;42713;42.676;23.352;2023-02-15T05:52:41;36.78;;;20.15;;
56830;SDS011;42713;42.676;23.352;2023-02-15T05:55:06;41.20;;;21.67;;
56830;SDS011;42713;42.676;23.352;2023-02-15T05:57:34;38.25;;;20.20;;
56830;SDS011;42713;42.676;23.352;2023-02-15T06:00:04;35.90;;;20.40;;
56830;SDS011;42713;42.676;23.352;2023-02-15T06:05:01;38.58;;;20.92;;
56830;SDS011;42713;42.676;23.352;2023-02-15T06:07:27;37.63;;;20.08;;
56830;SDS011;42713;42.676;23.352;2023-02-15T06:09:52;40.45;;;20.27;;
56830;SDS011;42713;42.676;23.352;2023-02-15T06:12:18;38.88;;;20.83;;
56830;SDS011;42713;42.676;23.352;2023-02-15T06:14:43;36.90;;;20.02;;
56830;SDS011;42713;42.676;23.352;2023-02-15T06:17:09;40.28;;;20.83;;
56830;SDS011;42713;42.676;23.352;2023-02-15T06:19:34;37.63;;;20.38;;
56830;SDS011;42713;42.676;23.352;2023-02-15T06:22:00;38.63;;;20.70;;
56830;SDS011;42713;42.676;23.352;2023-02-15T06:24:25;39.83;;;20.40;;
56830;SDS011;42713;42.676;23.352;2023-02-15T06:26:51;38.88;;;20.85;;
56830;SDS011;42713;42.676;23.352;2023-02-15T06:29:16;38.15;;;19.13;;
56830;SDS011;42713;42.676;23.352;2023-02-15T06:31:42;38.20;;;20.90;;
56830;SDS011;42713;42.676;23.352;2023-02-15T06:34:07;34.92;;;20.25;;
56830;SDS011;42713;42.676;23.352;2023-02-15T06:36:34;36.70;;;19.38;;
56830;SDS011;42713;42.676;23.352;2023-02-15T06:39:00;39.05;;;19.88;;
56830;SDS011;42713;42.676;23.352;2023-02-15T06:41:25;34.75;;;19.50;;
56830;SDS011;42713;42.676;23.352;2023-02-15T06:43:51;37.25;;;19.83;;
56830;SDS011;42713;42.676;23.352;2023-02-15T06:46:16;37.55;;;19.40;;
56830;SDS011;42713;42.676;23.352;2023-02-15T06:48:42;37.88;;;19.40;;
56830;SDS011;42713;42.676;23.352;2023-02-15T06:51:07;34.08;;;18.98;;
56830;SDS011;42713;42.676;23.352;2023-02-15T06:53:38;34.97;;;19.13;;
56830;SDS011;42713;42.676;23.352;2023-02-15T06:56:06;36.72;;;18.63;;
56830;SDS011;42713;42.676;23.352;2023-02-15T06:58:34;34.05;;;19.05;;
56830;SDS011;42713;42.676;23.352;2023-02-15T07:01:09;37.53;;;19.73;;
56830;SDS011;42713;42.676;23.352;2023-02-15T07:03:35;35.45;;;18.75;;
56830;SDS011;42713;42.676;23.352;2023-02-15T07:06:02;37.10;;;19.33;;
56830;SDS011;42713;42.676;23.352;2023-02-15T07:08:30;36.78;;;18.98;;
56830;SDS011;42713;42.676;23.352;2023-02-15T07:10:56;32.42;;;16.98;;
56830;SDS011;42713;42.676;23.352;2023-02-15T07:13:45;31.77;;;15.93;;
56830;SDS011;42713;42.676;23.352;2023-02-15T07:16:11;34.35;;;18.17;;
56830;SDS011;42713;42.676;23.352;2023-02-15T07:18:39;30.83;;;17.75;;
56830;SDS011;42713;42.676;23.352;2023-02-15T07:21:05;37.05;;;18.85;;
56830;SDS011;42713;42.676;23.352;2023-02-15T07:23:34;32.97;;;17.05;;
56830;SDS011;42713;42.676;23.352;2023-02-15T07:26:03;35.83;;;18.10;;
56830;SDS011;42713;42.676;23.352;2023-02-15T07:28:30;34.72;;;18.45;;
56830;SDS011;42713;42.676;23.352;2023-02-15T07:30:56;28.13;;;17.00;;
56830;SDS011;42713;42.676;23.352;2023-02-15T07:33:25;31.83;;;17.58;;
56830;SDS011;42713;42.676;23.352;2023-02-15T07:35:53;32.88;;;17.30;;
56830;SDS011;42713;42.676;23.352;2023-02-15T07:38:20;31.63;;;17.00;;
56830;SDS011;42713;42.676;23.352;2023-02-15T07:40:46;30.30;;;16.20;;
56830;SDS011;42713;42.676;23.352;2023-02-15T07:43:12;32.00;;;16.92;;
56830;SDS011;42713;42.676;23.352;2023-02-15T07:45:38;32.53;;;15.80;;
56830;SDS011;42713;42.676;23.352;2023-02-15T07:48:04;31.90;;;16.50;;
56830;SDS011;42713;42.676;23.352;2023-02-15T07:50:30;30.38;;;16.58;;
56830;SDS011;42713;42.676;23.352;2023-02-15T07:52:58;29.23;;;15.38;;
56830;SDS011;42713;42.676;23.352;2023-02-15T07:55:25;28.42;;;15.10;;
56830;SDS011;42713;42.676;23.352;2023-02-15T07:57:51;35.45;;;17.10;;
56830;SDS011;42713;42.676;23.352;2023-02-15T08:00:20;31.30;;;16.98;;
56830;SDS011;42713;42.676;23.352;2023-02-15T08:02:51;34.00;;;17.20;;
56830;SDS011;42713;42.676;23.352;2023-02-15T08:05:38;31.17;;;16.42;;
56830;SDS011;42713;42.676;23.352;2023-02-15T08:08:10;32.35;;;16.48;;
56830;SDS011;42713;42.676;23.352;2023-02-15T08:11:01;32.47;;;15.75;;
56830;SDS011;42713;42.676;23.352;2023-02-15T08:13:46;31.88;;;15.52;;
56830;SDS011;42713;42.676;23.352;2023-02-15T08:16:22;30.85;;;17.52;;
56830;SDS011;42713;42.676;23.352;2023-02-15T08:18:59;31.17;;;16.38;;
56830;SDS011;42713;42.676;23.352;2023-02-15T08:21:27;29.85;;;16.15;;
56830;SDS011;42713;42.676;23.352;2023-02-15T08:23:54;30.48;;;16.38;;
56830;SDS011;42713;42.676;23.352;2023-02-15T08:26:21;28.13;;;15.63;;
56830;SDS011;42713;42.676;23.352;2023-02-15T08:28:47;30.33;;;16.10;;
56830;SDS011;42713;42.676;23.352;2023-02-15T08:31:14;30.35;;;15.98;;
56830;SDS011;42713;42.676;23.352;2023-02-15T08:33:40;35.88;;;16.25;;
56830;SDS011;42713;42.676;23.352;2023-02-15T08:36:08;30.77;;;17.27;;
56830;SDS011;42713;42.676;23.352;2023-02-15T08:38:36;31.75;;;16.38;;
56830;SDS011;42713;42.676;23.352;2023-02-15T08:41:11;30.48;;;15.68;;
56830;SDS011;42713;42.676;23.352;2023-02-15T08:43:39;34.13;;;17.08;;
56830;SDS011;42713;42.676;23.352;2023-02-15T08:46:05;29.45;;;16.42;;
56830;SDS011;42713;42.676;23.352;2023-02-15T08:48:32;31.02;;;15.45;;
56830;SDS011;42713;42.676;23.352;2023-02-15T08:50:57;33.17;;;15.77;;
56830;SDS011;42713;42.676;23.352;2023-02-15T08:53:23;31.02;;;16.33;;
56830;SDS011;42713;42.676;23.352;2023-02-15T08:55:55;29.65;;;14.73;;
56830;SDS011;42713;42.676;23.352;2023-02-15T08:58:25;33.03;;;15.32;;
56830;SDS011;42713;42.676;23.352;2023-02-15T09:00:51;24.85;;;14.90;;
56830;SDS011;42713;42.676;23.352;2023-02-15T09:03:16;29.25;;;14.95;;
56830;SDS011;42713;42.676;23.352;2023-02-15T09:05:42;29.30;;;14.30;;
56830;SDS011;42713;42.676;23.352;2023-02-15T09:08:07;24.67;;;13.68;;
56830;SDS011;42713;42.676;23.352;2023-02-15T09:10:33;27.42;;;14.65;;
56830;SDS011;42713;42.676;23.352;2023-02-15T09:12:58;27.42;;;15.13;;
56830;SDS011;42713;42.676;23.352;2023-02-15T09:15:24;26.30;;;13.05;;
56830;SDS011;42713;42.676;23.352;2023-02-15T09:17:49;27.55;;;14.30;;
56830;SDS011;42713;42.676;23.352;2023-02-15T09:20:15;27.67;;;14.88;;
56830;SDS011;42713;42.676;23.352;2023-02-15T09:22:41;27.55;;;14.10;;
56830;SDS011;42713;42.676;23.352;2023-02-15T09:25:06;24.38;;;14.10;;
56830;SDS011;42713;42.676;23.352;2023-02-15T09:27:32;24.90;;;13.88;;
56830;SDS011;42713;42.676;23.352;2023-02-15T09:29:57;31.58;;;15.95;;
56830;SDS011;42713;42.676;23.352;2023-02-15T09:32:23;27.25;;;14.13;;
56830;SDS011;42713;42.676;23.352;2023-02-15T09:34:48;24.05;;;13.85;;
56830;SDS011;42713;42.676;23.352;2023-02-15T09:37:14;25.85;;;14.20;;
56830;SDS011;42713;42.676;23.352;2023-02-15T09:39:40;29.77;;;13.93;;
56830;SDS011;42713;42.676;23.352;2023-02-15T10:01:18;28.15;;;14.77;;
56830;SDS011;42713;42.676;23.352;2023-02-15T10:07:09;27.00;;;13.55;;
56830;SDS011;42713;42.676;23.352;2023-02-15T10:13:02;29.38;;;14.77;;
56830;SDS011;42713;42.676;23.352;2023-02-15T10:21:23;26.10;;;14.10;;
56830;SDS011;42713;42.676;23.352;2023-02-15T10:24:14;27.15;;;14.52;;
56830;SDS011;42713;42.676;23.352;2023-02-15T10:26:46;24.63;;;13.63;;
56830;SDS011;42713;42.676;23.352;2023-02-15T10:32:05;25.60;;;14.80;;
56830;SDS011;42713;42.676;23.352;2023-02-15T10:34:38;25.23;;;14.25;;
56830;SDS011;42713;42.676;23.352;2023-02-15T10:40:01;34.55;;;16.42;;
56830;SDS011;42713;42.676;23.352;2023-02-15T10:51:11;26.65;;;15.00;;
56830;SDS011;42713;42.676;23.352;2023-02-15T10:56:36;25.42;;;15.52;;
56830;SDS011;42713;42.676;23.352;2023-02-15T11:01:46;29.08;;;16.95;;
56830;SDS011;42713;42.676;23.352;2023-02-15T11:07:28;29.08;;;16.83;;
56830;SDS011;42713;42.676;23.352;2023-02-15T11:10:05;28.63;;;16.42;;
56830;SDS011;42713;42.676;23.352;2023-02-15T11:12:41;33.55;;;17.30;;
56830;SDS011;42713;42.676;23.352;2023-02-15T11:17:45;29.02;;;15.93;;
56830;SDS011;42713;42.676;23.352;2023-02-15T11:23:07;30.10;;;17.40;;
56830;SDS011;42713;42.676;23.352;2023-02-15T11:25:41;31.17;;;16.73;;
56830;SDS011;42713;42.676;23.352;2023-02-15T11:28:20;30.75;;;16.30;;
56830;SDS011;42713;42.676;23.352;2023-02-15T11:30:51;28.73;;;16.05;;
56830;SDS011;42713;42.676;23.352;2023-02-15T11:33:22;32.67;;;16.63;;
56830;SDS011;42713;42.676;23.352;2023-02-15T11:35:55;30.63;;;16.13;;
56830;SDS011;42713;42.676;23.352;2023-02-15T11:38:28;29.67;;;16.88;;
56830;SDS011;42713;42.676;23.352;2023-02-15T11:41:02;29.05;;;16.50;;
56830;SDS011;42713;42.676;23.352;2023-02-15T11:43:48;30.50;;;15.95;;
56830;SDS011;42713;42.676;23.352;2023-02-15T11:46:19;31.38;;;16.50;;
56830;SDS011;42713;42.676;23.352;2023-02-15T11:48:46;29.17;;;17.08;;
56830;SDS011;42713;42.676;23.352;2023-02-15T11:51:13;30.85;;;16.02;;
56830;SDS011;42713;42.676;23.352;2023-02-15T11:53:41;30.70;;;16.30;;
56830;SDS011;42713;42.676;23.352;2023-02-15T12:01:30;26.50;;;15.68;;
56830;SDS011;42713;42.676;23.352;2023-02-15T12:06:32;30.60;;;16.33;;
56830;SDS011;42713;42.676;23.352;2023-02-15T12:11:34;29.75;;;17.10;;
56830;SDS011;42713;42.676;23.352;2023-02-15T12:14:05;28.77;;;16.08;;
56830;SDS011;42713;42.676;23.352;2023-02-15T12:19:12;30.33;;;15.75;;
56830;SDS011;42713;42.676;23.352;2023-02-15T12:21:49;29.98;;;16.65;;
56830;SDS011;42713;42.676;23.352;2023-02-15T12:26:55;30.20;;;17.15;;
56830;SDS011;42713;42.676;23.352;2023-02-15T12:29:24;27.48;;;15.10;;
56830;SDS011;42713;42.676;23.352;2023-02-15T12:31:52;29.05;;;16.73;;
56830;SDS011;42713;42.676;23.352;2023-02-15T12:34:22;29.75;;;16.42;;
56830;SDS011;42713;42.676;23.352;2023-02-15T12:36:52;30.33;;;15.93;;
56830;SDS011;42713;42.676;23.352;2023-02-15T12:39:28;27.50;;;15.13;;
56830;SDS011;42713;42.676;23.352;2023-02-15T12:44:22;28.15;;;15.93;;
56830;SDS011;42713;42.676;23.352;2023-02-15T12:47:33;25.92;;;14.98;;
56830;SDS011;42713;42.676;23.352;2023-02-15T12:50:08;28.88;;;15.98;;
56830;SDS011;42713;42.676;23.352;2023-02-15T12:52:42;29.05;;;16.65;;
56830;SDS011;42713;42.676;23.352;2023-02-15T12:55:23;29.52;;;16.73;;
56830;SDS011;42713;42.676;23.352;2023-02-15T12:58:07;29.60;;;16.25;;
56830;SDS011;42713;42.676;23.352;2023-02-15T13:00:44;27.90;;;14.90;;
56830;SDS011;42713;42.676;23.352;2023-02-15T13:03:20;26.67;;;15.00;;
56830;SDS011;42713;42.676;23.352;2023-02-15T13:05:53;27.70;;;15.90;;
56830;SDS011;42713;42.676;23.352;2023-02-15T13:08:21;24.38;;;14.45;;
56830;SDS011;42713;42.676;23.352;2023-02-15T13:13:19;29.63;;;17.80;;
56830;SDS011;42713;42.676;23.352;2023-02-15T13:15:48;28.88;;;16.40;;
56830;SDS011;42713;42.676;23.352;2023-02-15T13:18:16;32.35;;;16.02;;
56830;SDS011;42713;42.676;23.352;2023-02-15T13:20:50;26.58;;;16.15;;
56830;SDS011;42713;42.676;23.352;2023-02-15T13:23:24;32.63;;;15.85;;
56830;SDS011;42713;42.676;23.352;2023-02-15T13:25:52;26.10;;;15.93;;
56830;SDS011;42713;42.676;23.352;2023-02-15T13:28:23;28.73;;;18.13;;
56830;SDS011;42713;42.676;23.352;2023-02-15T13:30:59;29.38;;;17.90;;
56830;SDS011;42713;42.676;23.352;2023-02-15T13:33:32;29.58;;;17.63;;
56830;SDS011;42713;42.676;23.352;2023-02-15T13:42:20;27.55;;;15.98;;
56830;SDS011;42713;42.676;23.352;2023-02-15T13:50:17;27.77;;;14.57;;
56830;SDS011;42713;42.676;23.352;2023-02-15T13:59:24;25.85;;;13.45;;
56830;SDS011;42713;42.676;23.352;2023-02-15T14:05:01;25.75;;;15.88;;
56830;SDS011;42713;42.676;23.352;2023-02-15T14:08:26;32.17;;;16.73;;
56830;SDS011;42713;42.676;23.352;2023-02-15T14:13:39;27.20;;;16.25;;
56830;SDS011;42713;42.676;23.352;2023-02-15T14:21:55;31.45;;;17.52;;
56830;SDS011;42713;42.676;23.352;2023-02-15T14:24:25;31.95;;;17.65;;
56830;SDS011;42713;42.676;23.352;2023-02-15T14:27:23;30.27;;;16.77;;
56830;SDS011;42713;42.676;23.352;2023-02-15T14:32:21;32.00;;;18.17;;
56830;SDS011;42713;42.676;23.352;2023-02-15T14:34:58;28.20;;;14.95;;
56830;SDS011;42713;42.676;23.352;2023-02-15T14:40:00;31.85;;;17.65;;
56830;SDS011;42713;42.676;23.352;2023-02-15T14:43:00;35.47;;;17.33;;
56830;SDS011;42713;42.676;23.352;2023-02-15T14:53:16;31.88;;;17.45;;
56830;SDS011;42713;42.676;23.352;2023-02-15T14:55:48;31.13;;;16.63;;
56830;SDS011;42713;42.676;23.352;2023-02-15T14:58:54;33.20;;;17.80;;
56830;SDS011;42713;42.676;23.352;2023-02-15T15:03:55;26.90;;;16.85;;
56830;SDS011;42713;42.676;23.352;2023-02-15T15:06:29;32.63;;;18.00;;
56830;SDS011;42713;42.676;23.352;2023-02-15T15:08:58;31.77;;;17.48;;
56830;SDS011;42713;42.676;23.352;2023-02-15T15:11:39;29.73;;;17.98;;
56830;SDS011;42713;42.676;23.352;2023-02-15T15:14:08;27.55;;;17.05;;
56830;SDS011;42713;42.676;23.352;2023-02-15T15:19:09;29.60;;;16.70;;
56830;SDS011;42713;42.676;23.352;2023-02-15T15:30:49;30.48;;;17.23;;
56830;SDS011;42713;42.676;23.352;2023-02-15T15:43:53;33.88;;;18.95;;
56830;SDS011;42713;42.676;23.352;2023-02-15T15:49:23;33.00;;;18.42;;
56830;SDS011;42713;42.676;23.352;2023-02-15T15:51:53;36.17;;;19.92;;
56830;SDS011;42713;42.676;23.352;2023-02-15T15:54:20;35.63;;;19.65;;
56830;SDS011;42713;42.676;23.352;2023-02-15T15:56:48;33.03;;;18.45;;
56830;SDS011;42713;42.676;23.352;2023-02-15T15:59:19;35.53;;;18.80;;
56830;SDS011;42713;42.676;23.352;2023-02-15T16:01:53;37.25;;;19.23;;
56830;SDS011;42713;42.676;23.352;2023-02-15T16:04:23;34.58;;;18.85;;
56830;SDS011;42713;42.676;23.352;2023-02-15T16:06:55;35.40;;;19.48;;
56830;SDS011;42713;42.676;23.352;2023-02-15T16:09:23;35.00;;;19.20;;
56830;SDS011;42713;42.676;23.352;2023-02-15T16:11:51;39.13;;;21.23;;
56830;SDS011;42713;42.676;23.352;2023-02-15T16:14:26;36.97;;;20.83;;
56830;SDS011;42713;42.676;23.352;2023-02-15T16:16:56;38.35;;;22.23;;
56830;SDS011;42713;42.676;23.352;2023-02-15T16:19:32;40.17;;;21.00;;
56830;SDS011;42713;42.676;23.352;2023-02-15T16:22:01;35.63;;;20.23;;
56830;SDS011;42713;42.676;23.352;2023-02-15T16:32:46;35.13;;;20.35;;
56830;SDS011;42713;42.676;23.352;2023-02-15T16:35:17;37.20;;;20.92;;
56830;SDS011;42713;42.676;23.352;2023-02-15T16:37:44;39.40;;;21.20;;
56830;SDS011;42713;42.676;23.352;2023-02-15T16:42:56;37.33;;;21.55;;
56830;SDS011;42713;42.676;23.352;2023-02-15T16:45:35;35.80;;;20.65;;
56830;SDS011;42713;42.676;23.352;2023-02-15T16:48:05;41.00;;;22.05;;
56830;SDS011;42713;42.676;23.352;2023-02-15T16:50:39;38.30;;;21.58;;
56830;SDS011;42713;42.676;23.352;2023-02-15T16:53:06;36.05;;;20.50;;
56830;SDS011;42713;42.676;23.352;2023-02-15T16:55:39;38.85;;;20.88;;
56830;SDS011;42713;42.676;23.352;2023-02-15T16:58:07;39.80;;;20.48;;
56830;SDS011;42713;42.676;23.352;2023-02-15T17:00:39;40.90;;;22.98;;
56830;SDS011;42713;42.676;23.352;2023-02-15T17:05:41;41.47;;;21.85;;
56830;SDS011;42713;42.676;23.352;2023-02-15T17:08:23;36.90;;;21.92;;
56830;SDS011;42713;42.676;23.352;2023-02-15T17:19:23;39.30;;;21.45;;
56830;SDS011;42713;42.676;23.352;2023-02-15T17:21:52;39.10;;;21.55;;
56830;SDS011;42713;42.676;23.352;2023-02-15T17:24:25;36.45;;;21.50;;
56830;SDS011;42713;42.676;23.352;2023-02-15T17:27:01;37.58;;;21.67;;
56830;SDS011;42713;42.676;23.352;2023-02-15T17:29:37;36.20;;;21.35;;
56830;SDS011;42713;42.676;23.352;2023-02-15T17:32:09;36.88;;;21.08;;
56830;SDS011;42713;42.676;23.352;2023-02-15T17:35:04;38.65;;;20.33;;
56830;SDS011;42713;42.676;23.352;2023-02-15T17:40:35;36.83;;;21.38;;
56830;SDS011;42713;42.676;23.352;2023-02-15T17:42:54;37.70;;;21.63;;
56830;SDS011;42713;42.676;23.352;2023-02-15T17:45:20;40.97;;;22.42;;
56830;SDS011;42713;42.676;23.352;2023-02-15T17:47:48;43.38;;;23.13;;
56830;SDS011;42713;42.676;23.352;2023-02-15T17:50:24;44.00;;;23.05;;
56830;SDS011;42713;42.676;23.352;2023-02-15T17:52:51;42.78;;;23.23;;
56830;SDS011;42713;42.676;23.352;2023-02-15T17:55:19;41.85;;;23.38;;
56830;SDS011;42713;42.676;23.352;2023-02-15T17:58:06;41.60;;;23.63;;
56830;SDS011;42713;42.676;23.352;2023-02-15T18:00:35;41.10;;;22.98;;
56830;SDS011;42713;42.676;23.352;2023-02-15T18:03:22;45.53;;;24.95;;
56830;SDS011;42713;42.676;23.352;2023-02-15T18:06:08;40.97;;;23.05;;